createdAt,value
2017-05-18T00:01:23.649Z,10.57
2017-05-18T00:03:51.673Z,9.12
2017-05-18T00:06:20.084Z,8.55
2017-05-18T00:08:48.496Z,10.43
2017-05-18T00:11:16.590Z,9.90
2017-05-18T00:13:45.737Z,9.83
2017-05-18T00:16:14.141Z,9.62
2017-05-18T00:18:42.164Z,8.37
2017-05-18T00:21:09.802Z,9.90
2017-05-18T00:23:37.465Z,11.40
2017-05-18T00:26:05.512Z,9.85
2017-05-18T00:28:33.163Z,10.25
2017-05-18T00:31:00.830Z,8.82
2017-05-18T00:33:28.969Z,10.35
2017-05-18T00:35:56.613Z,10.62
2017-05-18T00:38:24.289Z,8.77
2017-05-18T00:40:52.320Z,8.32
2017-05-18T00:43:19.961Z,10.60
2017-05-18T00:45:47.610Z,9.12
2017-05-18T00:48:16.473Z,8.87
2017-05-18T00:50:44.128Z,11.12
2017-05-18T00:53:11.772Z,9.13
2017-05-18T00:55:39.824Z,9.38
2017-05-18T00:58:07.468Z,10.52
2017-05-18T01:00:35.120Z,9.85
2017-05-18T01:03:03.820Z,10.72
2017-05-18T01:05:31.459Z,9.32
2017-05-18T01:07:59.127Z,9.28
2017-05-18T01:10:27.851Z,10.07
2017-05-18T01:12:56.257Z,9.90
2017-05-18T01:15:23.926Z,11.25
2017-05-18T01:17:52.056Z,9.50
2017-05-18T01:20:19.716Z,9.55
2017-05-18T01:22:47.349Z,9.33
2017-05-18T01:25:16.092Z,8.73
2017-05-18T01:27:43.741Z,8.12
2017-05-18T01:30:12.166Z,9.68
2017-05-18T01:32:40.161Z,10.17
2017-05-18T01:35:07.800Z,10.12
2017-05-18T01:37:35.461Z,9.08
2017-05-18T01:40:03.540Z,7.93
2017-05-18T01:42:31.194Z,8.10
2017-05-18T01:44:59.719Z,8.62
2017-05-18T01:47:27.677Z,7.77
2017-05-18T01:49:55.330Z,8.48
2017-05-18T01:52:22.979Z,8.22
2017-05-18T01:54:51.745Z,7.67
2017-05-18T01:57:19.390Z,8.92
2017-05-18T01:59:47.053Z,8.08
2017-05-18T02:02:15.011Z,7.98
2017-05-18T02:04:42.653Z,8.88
2017-05-18T02:07:10.306Z,8.88
2017-05-18T02:09:38.341Z,9.65
2017-05-18T02:12:05.983Z,9.40
2017-05-18T02:14:34.385Z,8.65
2017-05-18T02:17:02.404Z,7.98
2017-05-18T02:19:30.829Z,8.83
2017-05-18T02:21:59.238Z,8.32
2017-05-18T02:24:27.182Z,9.48
2017-05-18T02:26:54.826Z,7.90
2017-05-18T02:29:22.477Z,7.78
2017-05-18T02:31:50.426Z,6.85
2017-05-18T02:34:18.741Z,10.17
2017-05-18T02:36:47.150Z,8.62
2017-05-18T02:39:15.118Z,9.20
2017-05-18T02:41:43.552Z,9.53
2017-05-18T02:44:11.194Z,9.17
2017-05-18T02:46:39.901Z,10.23
2017-05-18T02:49:08.307Z,9.57
2017-05-18T02:51:36.714Z,10.50
2017-05-18T02:54:05.492Z,9.65
2017-05-18T02:56:33.901Z,9.73
2017-05-18T02:59:02.316Z,8.77
2017-05-18T03:01:30.276Z,9.75
2017-05-18T03:03:57.921Z,10.12
2017-05-18T03:06:25.568Z,8.08
2017-05-18T03:08:53.634Z,9.77
2017-05-18T03:11:22.062Z,9.13
2017-05-18T03:13:49.707Z,8.93
2017-05-18T03:16:17.707Z,9.92
2017-05-18T03:18:45.381Z,8.97
2017-05-18T03:21:13.808Z,9.50
2017-05-18T03:23:41.872Z,8.70
2017-05-18T03:26:09.529Z,9.90
2017-05-18T03:28:37.167Z,9.05
2017-05-18T03:31:05.125Z,9.68
2017-05-18T03:33:32.769Z,9.25
2017-05-18T03:36:00.405Z,7.87
2017-05-18T03:38:28.359Z,9.03
2017-05-18T03:40:56.022Z,8.50
2017-05-18T03:43:23.674Z,9.37
2017-05-18T03:45:51.707Z,10.87
2017-05-18T03:48:20.155Z,8.60
2017-05-18T03:50:47.835Z,9.97
2017-05-18T03:53:17.322Z,9.75
2017-05-18T03:55:44.969Z,9.80
2017-05-18T03:58:13.402Z,10.18
2017-05-18T04:00:41.365Z,9.90
2017-05-18T04:03:09.118Z,9.38
2017-05-18T04:05:36.756Z,9.55
2017-05-18T04:08:04.720Z,10.02
2017-05-18T04:10:33.362Z,8.70
2017-05-18T04:13:01.060Z,9.72
2017-05-18T04:15:29.087Z,8.93
2017-05-18T04:17:56.736Z,9.47
2017-05-18T04:20:24.367Z,8.25
2017-05-18T04:22:52.341Z,9.13
2017-05-18T04:25:19.976Z,8.98
2017-05-18T04:27:47.627Z,10.20
2017-05-18T04:30:15.585Z,7.50
2017-05-18T04:32:43.293Z,8.12
2017-05-18T04:35:11.692Z,8.53
2017-05-18T04:37:39.702Z,8.23
2017-05-18T04:40:08.098Z,8.02
2017-05-18T04:42:35.745Z,8.43
2017-05-18T04:45:03.708Z,8.43
2017-05-18T04:47:31.337Z,6.62
2017-05-18T04:49:59.736Z,7.40
2017-05-18T04:52:27.653Z,8.12
2017-05-18T04:54:55.363Z,7.87
2017-05-18T04:57:23.005Z,7.57
2017-05-18T04:59:51.045Z,7.68
2017-05-18T05:02:19.441Z,7.62
2017-05-18T05:04:47.075Z,8.10
2017-05-18T05:07:16.141Z,7.63
2017-05-18T05:09:43.777Z,8.07
2017-05-18T05:12:11.420Z,5.95
2017-05-18T05:14:39.480Z,7.13
2017-05-18T05:17:07.120Z,7.45
2017-05-18T05:19:34.761Z,6.67
2017-05-18T05:22:03.546Z,6.53
2017-05-18T05:24:31.957Z,6.43
2017-05-18T05:26:59.611Z,7.18
2017-05-18T05:29:27.584Z,5.67
2017-05-18T05:31:55.989Z,7.12
2017-05-18T05:34:23.645Z,6.35
2017-05-18T05:36:51.785Z,5.53
2017-05-18T05:39:19.428Z,6.60
2017-05-18T05:41:47.831Z,9.08
2017-05-18T05:44:15.868Z,7.08
2017-05-18T05:46:44.298Z,6.37
2017-05-18T05:49:12.727Z,6.13
2017-05-18T05:51:41.559Z,7.38
2017-05-18T05:54:09.215Z,6.35
2017-05-18T05:56:37.713Z,6.43
2017-05-18T05:59:05.657Z,6.42
2017-05-18T06:01:33.269Z,5.80
2017-05-18T06:04:01.739Z,6.00
2017-05-18T06:06:29.652Z,6.02
2017-05-18T06:08:57.284Z,6.24
2017-05-18T06:11:25.660Z,5.74
2017-05-18T06:13:54.333Z,5.96
2017-05-18T06:16:22.722Z,5.76
2017-05-18T06:18:50.349Z,6.06
2017-05-18T06:21:18.316Z,5.84
2017-05-18T06:23:45.933Z,5.62
2017-05-18T06:26:14.321Z,5.50
2017-05-18T06:28:42.277Z,5.70
2017-05-18T06:31:09.887Z,5.52
2017-05-18T06:33:37.507Z,5.76
2017-05-18T06:36:05.533Z,4.96
2017-05-18T06:38:33.919Z,4.56
2017-05-18T06:41:02.306Z,5.62
2017-05-18T06:43:31.019Z,5.86
2017-05-18T06:45:58.638Z,5.96
2017-05-18T06:48:27.031Z,5.38
2017-05-18T06:50:54.966Z,5.02
2017-05-18T06:53:23.341Z,5.80
2017-05-18T06:55:50.956Z,5.72
2017-05-18T06:58:18.898Z,5.58
2017-05-18T07:00:46.517Z,5.68
2017-05-18T07:03:14.903Z,6.10
2017-05-18T07:05:42.815Z,5.88
2017-05-18T07:08:10.437Z,5.64
2017-05-18T07:10:38.822Z,5.78
2017-05-18T07:13:07.499Z,5.32
2017-05-18T07:15:35.873Z,6.12
2017-05-18T07:18:04.260Z,5.22
2017-05-18T07:20:32.193Z,5.80
2017-05-18T07:23:00.596Z,6.96
2017-05-18T07:25:28.213Z,5.94
2017-05-18T07:27:56.149Z,5.48
2017-05-18T07:30:23.778Z,6.00
2017-05-18T07:32:51.466Z,6.20
2017-05-18T07:35:19.493Z,5.48
2017-05-18T07:37:47.099Z,5.30
2017-05-18T07:40:15.487Z,5.74
2017-05-18T07:42:43.393Z,5.48
2017-05-18T07:45:11.011Z,5.60
2017-05-18T07:47:38.626Z,6.16
2017-05-18T07:50:06.600Z,5.38
2017-05-18T07:52:34.212Z,5.80
2017-05-18T07:55:02.588Z,6.22
2017-05-18T07:57:30.514Z,6.38
2017-05-18T07:59:58.901Z,8.30
2017-05-18T08:02:27.288Z,5.28
2017-05-18T08:04:55.986Z,5.98
2017-05-18T08:07:24.380Z,5.58
2017-05-18T08:09:52.777Z,4.86
2017-05-18T08:12:20.716Z,6.40
2017-05-18T08:14:49.107Z,5.30
2017-05-18T08:17:17.496Z,5.34
2017-05-18T08:19:45.433Z,5.76
2017-05-18T08:22:13.062Z,5.46
2017-05-18T08:24:41.448Z,5.20
2017-05-18T08:27:09.358Z,5.64
2017-05-18T08:29:37.750Z,6.02
2017-05-18T08:32:06.151Z,6.48
2017-05-18T08:34:34.085Z,6.90
2017-05-18T08:37:01.706Z,6.26
2017-05-18T08:39:30.098Z,6.34
2017-05-18T08:41:58.768Z,5.70
2017-05-18T08:44:26.385Z,6.48
2017-05-18T08:46:54.000Z,6.12
2017-05-18T08:49:22.806Z,6.06
2017-05-18T08:51:51.205Z,6.14
2017-05-18T08:54:18.813Z,5.72
2017-05-18T08:56:47.629Z,6.18
2017-05-18T08:59:15.257Z,6.10
2017-05-18T09:01:42.878Z,6.38
2017-05-18T09:04:10.836Z,5.94
2017-05-18T09:06:38.458Z,6.12
2017-05-18T09:09:06.839Z,5.72
2017-05-18T09:11:35.750Z,6.22
2017-05-18T09:14:03.385Z,6.08
2017-05-18T09:16:31.016Z,6.02
2017-05-18T09:18:59.696Z,12.58
2017-05-18T09:21:27.328Z,5.44
2017-05-18T09:23:54.945Z,6.60
2017-05-18T09:26:23.657Z,5.38
2017-05-18T09:28:51.299Z,5.76
2017-05-18T09:31:18.923Z,5.50
2017-05-18T09:33:47.616Z,4.54
2017-05-18T09:36:15.226Z,7.28
2017-05-18T09:38:43.604Z,6.12
2017-05-18T09:41:11.572Z,5.46
2017-05-18T09:43:39.186Z,4.96
2017-05-18T09:46:07.565Z,5.58
2017-05-18T09:48:36.262Z,5.50
2017-05-18T09:51:03.880Z,6.20
2017-05-18T09:53:32.277Z,6.62
2017-05-18T09:56:00.205Z,6.60
2017-05-18T09:58:27.840Z,6.24
2017-05-18T10:00:56.217Z,6.02
2017-05-18T10:03:24.925Z,6.04
2017-05-18T10:05:53.315Z,6.10
2017-05-18T10:08:21.730Z,6.42
2017-05-18T10:10:50.446Z,6.36
2017-05-18T10:13:18.081Z,7.40
2017-05-18T10:15:45.689Z,5.36
2017-05-18T10:18:14.469Z,9.74
2017-05-18T10:20:42.086Z,6.00
2017-05-18T10:23:10.466Z,6.10
2017-05-18T10:25:39.150Z,7.22
2017-05-18T10:28:06.762Z,6.44
2017-05-18T10:30:35.145Z,7.22
2017-05-18T10:33:03.926Z,5.98
2017-05-18T10:35:32.480Z,5.84
2017-05-18T10:38:00.105Z,5.64
2017-05-18T10:40:28.774Z,6.22
2017-05-18T10:42:57.173Z,6.38
2017-05-18T10:45:24.793Z,6.08
2017-05-18T10:47:53.490Z,5.78
2017-05-18T10:50:21.103Z,6.42
2017-05-18T10:52:48.722Z,6.08
2017-05-18T10:55:17.406Z,5.78
2017-05-18T10:57:45.802Z,5.26
2017-05-18T11:00:13.424Z,5.26
2017-05-18T11:02:41.444Z,6.70
2017-05-18T11:05:09.833Z,5.66
2017-05-18T11:07:37.457Z,5.82
2017-05-18T11:10:06.205Z,6.00
2017-05-18T11:12:33.817Z,6.06
2017-05-18T11:15:02.209Z,6.08
2017-05-18T11:17:30.118Z,6.20
2017-05-18T11:19:57.749Z,6.74
2017-05-18T11:22:26.138Z,5.96
2017-05-18T11:24:54.821Z,6.02
2017-05-18T11:27:23.209Z,6.06
2017-05-18T11:29:50.838Z,7.06
2017-05-18T11:32:19.532Z,6.52
2017-05-18T11:34:47.148Z,6.44
2017-05-18T11:37:14.771Z,6.00
2017-05-18T11:39:42.769Z,6.42
2017-05-18T11:42:10.384Z,6.62
2017-05-18T11:44:38.764Z,6.34
2017-05-18T11:47:07.465Z,6.26
2017-05-18T11:49:35.089Z,5.32
2017-05-18T11:52:02.709Z,5.88
2017-05-18T11:54:30.628Z,5.70
2017-05-18T11:56:58.245Z,6.78
2017-05-18T11:59:26.629Z,5.72
2017-05-18T12:01:55.376Z,5.90
2017-05-18T12:04:23.006Z,6.08
2017-05-18T12:06:51.402Z,5.58
2017-05-18T12:09:19.368Z,6.18
2017-05-18T12:11:46.984Z,5.46
2017-05-18T12:14:14.603Z,5.14
2017-05-18T12:16:43.305Z,5.68
2017-05-18T12:19:11.696Z,6.38
2017-05-18T12:21:39.328Z,5.46
2017-05-18T12:24:07.236Z,4.82
2017-05-18T12:26:35.639Z,5.48
2017-05-18T12:29:04.030Z,5.78
2017-05-18T12:31:31.952Z,5.50
2017-05-18T12:33:59.568Z,5.94
2017-05-18T12:36:27.950Z,4.42
2017-05-18T12:38:55.909Z,5.18
2017-05-18T12:41:24.305Z,5.18
2017-05-18T12:43:51.939Z,5.18
2017-05-18T12:46:19.885Z,4.56
2017-05-18T12:48:47.505Z,5.42
2017-05-18T12:51:15.885Z,5.32
2017-05-18T12:53:43.954Z,5.90
2017-05-18T12:56:11.586Z,5.50
2017-05-18T12:58:39.248Z,5.88
2017-05-18T13:01:07.182Z,5.60
2017-05-18T13:03:34.805Z,5.36
2017-05-18T13:06:03.202Z,5.58
2017-05-18T13:08:31.897Z,5.04
2017-05-18T13:10:59.523Z,4.62
2017-05-18T13:13:27.908Z,5.08
2017-05-18T13:15:56.674Z,5.04
2017-05-18T13:18:24.290Z,4.72
2017-05-18T13:20:52.691Z,5.04
2017-05-18T13:23:21.445Z,5.26
2017-05-18T13:25:49.073Z,5.06
2017-05-18T13:28:16.685Z,4.82
2017-05-18T13:30:44.685Z,5.04
2017-05-18T13:33:13.078Z,5.10
2017-05-18T13:35:40.700Z,6.46
2017-05-18T13:38:08.649Z,5.22
2017-05-18T13:40:37.228Z,4.86
2017-05-18T13:43:04.844Z,4.64
2017-05-18T13:45:33.529Z,6.06
2017-05-18T13:48:01.153Z,4.78
2017-05-18T13:50:29.542Z,5.20
2017-05-18T13:52:57.488Z,5.22
2017-05-18T13:55:25.105Z,4.98
2017-05-18T13:57:53.916Z,4.84
2017-05-18T14:00:22.689Z,4.60
2017-05-18T14:02:50.323Z,4.86
2017-05-18T14:05:17.947Z,5.48
2017-05-18T14:07:46.641Z,4.40
2017-05-18T14:10:14.262Z,5.00
2017-05-18T14:12:42.653Z,7.68
2017-05-18T14:15:10.589Z,4.10
2017-05-18T14:17:39.053Z,5.66
2017-05-18T14:20:06.683Z,5.60
2017-05-18T14:22:34.683Z,4.94
2017-05-18T14:25:02.309Z,4.96
2017-05-18T14:27:29.933Z,4.50
2017-05-18T14:29:57.927Z,6.22
2017-05-18T14:32:25.545Z,4.44
2017-05-18T14:34:53.925Z,5.48
2017-05-18T14:37:21.893Z,4.90
2017-05-18T14:39:49.517Z,5.36
2017-05-18T14:42:17.909Z,4.56
2017-05-18T14:44:46.673Z,5.00
2017-05-18T14:47:14.306Z,4.44
2017-05-18T14:49:41.926Z,6.24
2017-05-18T14:52:09.866Z,5.04
2017-05-18T14:54:39.001Z,5.78
2017-05-18T14:57:07.394Z,4.34
2017-05-18T14:59:35.313Z,4.80
2017-05-18T15:02:02.926Z,4.72
2017-05-18T15:04:31.319Z,4.80
2017-05-18T15:06:59.273Z,3.96
2017-05-18T15:09:26.890Z,4.66
2017-05-18T15:11:55.282Z,5.06
2017-05-18T15:14:23.353Z,4.30
2017-05-18T15:16:50.987Z,5.40
2017-05-18T15:19:18.613Z,4.92
2017-05-18T15:21:47.317Z,5.38
2017-05-18T15:24:15.307Z,4.90
2017-05-18T15:26:43.927Z,4.86
2017-05-18T15:29:11.903Z,4.16
2017-05-18T15:31:39.528Z,5.12
2017-05-18T15:34:07.184Z,5.20
2017-05-18T15:36:35.146Z,4.92
2017-05-18T15:39:02.764Z,5.04
2017-05-18T15:41:31.165Z,4.56
2017-05-18T15:43:59.104Z,4.74
2017-05-18T15:46:26.736Z,4.50
2017-05-18T15:48:54.352Z,5.04
2017-05-18T15:51:23.069Z,3.76
2017-05-18T15:53:50.700Z,5.22
2017-05-18T15:56:18.329Z,4.30
2017-05-18T15:58:47.024Z,4.48
2017-05-18T16:01:15.433Z,4.48
2017-05-18T16:03:43.061Z,4.36
2017-05-18T16:06:11.101Z,4.84
2017-05-18T16:08:39.506Z,10.24
2017-05-18T16:11:07.141Z,4.56
2017-05-18T16:13:35.073Z,4.52
2017-05-18T16:16:02.688Z,4.60
2017-05-18T16:18:30.533Z,5.20
2017-05-18T16:20:58.636Z,4.72
2017-05-18T16:23:26.296Z,5.18
2017-05-18T16:25:54.681Z,4.18
2017-05-18T16:28:23.374Z,4.26
2017-05-18T16:30:51.000Z,4.20
2017-05-18T16:33:19.387Z,4.38
2017-05-18T16:35:49.223Z,5.80
2017-05-18T16:38:17.639Z,5.14
2017-05-18T16:40:45.282Z,4.36
2017-05-18T16:43:13.977Z,9.20
2017-05-18T16:45:41.609Z,3.82
2017-05-18T16:48:09.230Z,3.86
2017-05-18T16:50:37.957Z,4.82
2017-05-18T16:53:06.359Z,3.96
2017-05-18T16:55:33.992Z,4.14
2017-05-18T16:58:02.019Z,10.38
2017-05-18T17:00:30.410Z,4.64
2017-05-18T17:02:58.436Z,3.76
2017-05-18T17:05:26.487Z,4.50
2017-05-18T17:07:54.441Z,3.72
2017-05-18T17:10:24.811Z,5.04
2017-05-18T17:12:53.036Z,3.86
2017-05-18T17:15:21.246Z,5.64
2017-05-18T17:17:49.640Z,3.64
2017-05-18T17:20:17.585Z,4.10
2017-05-18T17:22:45.216Z,4.64
2017-05-18T17:25:12.865Z,3.70
2017-05-18T17:27:41.003Z,4.26
2017-05-18T17:30:09.098Z,3.72
2017-05-18T17:32:36.715Z,4.96
2017-05-18T17:35:05.308Z,3.96
2017-05-18T17:37:33.656Z,4.22
2017-05-18T17:40:02.107Z,5.86
2017-05-18T17:42:30.808Z,3.84
2017-05-18T17:44:59.021Z,4.16
2017-05-18T17:47:26.641Z,3.78
2017-05-18T17:49:54.632Z,3.42
2017-05-18T17:52:23.033Z,3.52
2017-05-18T17:54:50.774Z,4.08
2017-05-18T17:57:19.367Z,3.52
2017-05-18T17:59:47.847Z,3.44
2017-05-18T18:02:15.456Z,5.60
2017-05-18T18:04:44.068Z,3.94
2017-05-18T18:07:11.701Z,5.22
2017-05-18T18:09:39.334Z,4.40
2017-05-18T18:12:07.270Z,3.52
2017-05-18T18:14:35.724Z,4.60
2017-05-18T18:17:03.353Z,3.10
2017-05-18T18:19:31.377Z,4.28
2017-05-18T18:21:59.806Z,4.74
2017-05-18T18:24:28.263Z,4.20
2017-05-18T18:26:56.313Z,6.24
2017-05-18T18:29:24.674Z,4.28
2017-05-18T18:31:52.955Z,3.96
2017-05-18T18:34:20.905Z,3.94
2017-05-18T18:36:48.528Z,4.80
2017-05-18T18:39:16.918Z,4.90
2017-05-18T18:41:45.052Z,4.78
2017-05-18T18:44:12.695Z,4.58
2017-05-18T18:46:41.084Z,4.74
2017-05-18T18:49:09.995Z,3.76
2017-05-18T18:51:37.628Z,5.48
2017-05-18T18:54:05.297Z,4.96
2017-05-18T18:56:33.300Z,4.52
2017-05-18T18:59:00.920Z,4.40
2017-05-18T19:01:29.322Z,4.96
2017-05-18T19:03:58.085Z,5.18
2017-05-18T19:06:25.701Z,4.68
2017-05-18T19:08:54.100Z,5.04
2017-05-18T19:11:22.065Z,4.44
2017-05-18T19:13:50.462Z,5.22
2017-05-18T19:16:19.309Z,5.10
2017-05-18T19:18:48.009Z,5.36
2017-05-18T19:21:15.628Z,4.90
2017-05-18T19:23:44.017Z,4.72
2017-05-18T19:26:12.076Z,5.04
2017-05-18T19:28:39.699Z,4.82
2017-05-18T19:31:08.223Z,4.54
2017-05-18T19:33:36.916Z,4.88
2017-05-18T19:36:04.543Z,5.64
2017-05-18T19:38:32.927Z,5.54
2017-05-18T19:41:01.601Z,4.86
2017-05-18T19:43:30.005Z,6.44
2017-05-18T19:45:58.389Z,5.82
2017-05-18T19:48:27.084Z,4.86
2017-05-18T19:50:54.709Z,6.02
2017-05-18T19:53:23.092Z,5.74
2017-05-18T19:55:51.058Z,6.08
2017-05-18T19:58:18.684Z,5.84
2017-05-18T20:00:46.335Z,5.82
2017-05-18T20:03:14.254Z,5.90
2017-05-18T20:05:41.936Z,4.75
2017-05-18T20:08:09.577Z,6.67
2017-05-18T20:10:37.532Z,6.20
2017-05-18T20:13:05.904Z,7.22
2017-05-18T20:15:33.540Z,5.95
2017-05-18T20:18:02.315Z,6.43
2017-05-18T20:20:29.955Z,5.80
2017-05-18T20:22:57.605Z,5.68
2017-05-18T20:25:25.547Z,6.27
2017-05-18T20:27:53.952Z,8.06
2017-05-18T20:30:22.363Z,6.88
2017-05-18T20:32:51.166Z,7.23
2017-05-18T20:35:18.854Z,6.32
2017-05-18T20:37:47.585Z,6.70
2017-05-18T20:40:16.510Z,7.07
2017-05-18T20:42:45.660Z,6.58
2017-05-18T20:45:13.295Z,7.25
2017-05-18T20:47:41.238Z,7.42
2017-05-18T20:50:08.943Z,6.95
2017-05-18T20:52:36.603Z,6.63
2017-05-18T20:55:05.422Z,7.30
2017-05-18T20:57:33.166Z,7.92
2017-05-18T21:00:00.898Z,8.13
2017-05-18T21:02:29.723Z,6.97
2017-05-18T21:04:57.355Z,7.45
2017-05-18T21:07:25.145Z,7.62
2017-05-18T21:09:53.851Z,7.60
2017-05-18T21:12:21.527Z,7.65
2017-05-18T21:14:49.171Z,7.93
2017-05-18T21:17:17.305Z,7.42
2017-05-18T21:19:45.735Z,8.00
2017-05-18T21:22:14.133Z,8.23
2017-05-18T21:24:42.937Z,7.77
2017-05-18T21:27:10.581Z,8.78
2017-05-18T21:29:38.284Z,7.98
2017-05-18T21:32:07.262Z,6.90
2017-05-18T21:34:34.909Z,7.40
2017-05-18T21:37:03.315Z,9.40
2017-05-18T21:39:31.415Z,9.12
2017-05-18T21:41:59.812Z,8.80
2017-05-18T21:44:27.555Z,9.13
2017-05-18T21:46:55.518Z,9.10
2017-05-18T21:49:23.155Z,8.38
2017-05-18T21:51:50.841Z,7.38
2017-05-18T21:54:18.866Z,7.97
2017-05-18T21:56:46.487Z,8.32
2017-05-18T21:59:14.246Z,8.37
2017-05-18T22:01:42.183Z,8.18
2017-05-18T22:04:09.867Z,8.98
2017-05-18T22:06:38.296Z,8.47
2017-05-18T22:09:06.374Z,8.62
2017-05-18T22:11:34.036Z,9.88
2017-05-18T22:14:02.475Z,6.73
2017-05-18T22:16:30.460Z,8.27
2017-05-18T22:18:58.118Z,7.25
2017-05-18T22:21:25.781Z,6.68
2017-05-18T22:23:53.931Z,7.50
2017-05-18T22:26:22.648Z,6.48
2017-05-18T22:28:50.348Z,6.97
2017-05-18T22:31:19.098Z,6.53
2017-05-18T22:33:46.752Z,6.88
2017-05-18T22:36:14.405Z,6.32
2017-05-18T22:38:42.445Z,6.58
2017-05-18T22:41:10.100Z,7.17
2017-05-18T22:43:37.754Z,8.80
2017-05-18T22:46:05.700Z,6.55
2017-05-18T22:48:34.164Z,6.73
2017-05-18T22:51:02.002Z,6.52
2017-05-18T22:53:30.072Z,6.45
2017-05-18T22:55:57.710Z,6.40
2017-05-18T22:58:25.366Z,7.13
2017-05-18T23:00:53.312Z,6.88
2017-05-18T23:03:21.021Z,5.90
2017-05-18T23:05:48.758Z,7.30
2017-05-18T23:08:17.590Z,7.05
2017-05-18T23:10:45.346Z,7.38
2017-05-18T23:13:13.766Z,5.93
2017-05-18T23:15:41.760Z,6.72
2017-05-18T23:18:09.398Z,5.98
2017-05-18T23:20:37.815Z,6.67
2017-05-18T23:23:06.537Z,6.07
2017-05-18T23:25:34.185Z,6.30
2017-05-18T23:28:01.824Z,5.32
2017-05-18T23:30:29.787Z,7.68
2017-05-18T23:32:58.200Z,5.83
2017-05-18T23:35:26.621Z,6.50
2017-05-18T23:37:55.329Z,7.63
2017-05-18T23:40:23.741Z,6.33
2017-05-18T23:42:51.393Z,6.68
2017-05-18T23:45:20.096Z,6.23
2017-05-18T23:47:47.749Z,6.38
2017-05-18T23:50:15.397Z,5.57
2017-05-18T23:52:43.426Z,6.80
2017-05-18T23:55:11.134Z,5.75
2017-05-18T23:57:39.558Z,6.25
